createdAt,value
2018-08-24T00:00:19.758Z,75.50
2018-08-24T00:02:48.120Z,75.60
2018-08-24T00:05:16.559Z,75.70
2018-08-24T00:07:45.014Z,75.80
2018-08-24T00:10:13.604Z,75.90
2018-08-24T00:12:41.940Z,76.10
2018-08-24T00:15:10.280Z,76.40
2018-08-24T00:17:38.667Z,76.50
2018-08-24T00:20:07.116Z,76.70
2018-08-24T00:22:35.603Z,76.90
2018-08-24T00:25:04.043Z,77.00
2018-08-24T00:27:32.436Z,77.00
2018-08-24T00:30:00.844Z,77.10
2018-08-24T00:32:29.229Z,77.40
2018-08-24T00:34:57.559Z,77.50
2018-08-24T00:37:25.892Z,77.80
2018-08-24T00:39:54.272Z,78.00
2018-08-24T00:42:22.617Z,78.10
2018-08-24T00:44:50.910Z,78.10
2018-08-24T00:47:19.292Z,78.30
2018-08-24T00:49:47.824Z,78.50
2018-08-24T00:52:16.155Z,78.50
2018-08-24T00:54:44.488Z,78.80
2018-08-24T00:57:12.869Z,78.80
2018-08-24T00:59:41.276Z,78.80
2018-08-24T01:02:09.640Z,78.90
2018-08-24T01:04:37.998Z,78.90
2018-08-24T01:07:13.529Z,78.90
2018-08-24T01:09:42.420Z,79.70
2018-08-24T01:12:11.861Z,79.00
2018-08-24T01:14:41.942Z,79.20
2018-08-24T01:17:15.602Z,79.40
2018-08-24T01:19:44.448Z,79.40
2018-08-24T01:22:12.813Z,79.40
2018-08-24T01:24:41.212Z,79.40
2018-08-24T01:27:09.849Z,79.50
2018-08-24T01:29:40.327Z,79.20
2018-08-24T01:32:08.714Z,79.10
2018-08-24T01:34:37.884Z,78.90
2018-08-24T01:37:06.283Z,78.80
2018-08-24T01:39:35.016Z,78.80
2018-08-24T01:42:03.685Z,78.60
2018-08-24T01:44:32.044Z,78.50
2018-08-24T01:47:00.431Z,78.50
2018-08-24T01:49:28.787Z,78.60
2018-08-24T01:51:57.127Z,78.40
2018-08-24T01:54:25.490Z,78.30
2018-08-24T01:56:53.872Z,78.30
2018-08-24T01:59:22.175Z,78.30
2018-08-24T02:01:50.588Z,78.30
2018-08-24T02:04:18.913Z,78.20
2018-08-24T02:06:47.255Z,78.30
2018-08-24T02:09:15.639Z,78.40
2018-08-24T02:11:47.277Z,78.50
2018-08-24T02:14:21.067Z,78.50
2018-08-24T02:16:49.440Z,78.60
2018-08-24T02:19:17.895Z,78.60
2018-08-24T02:21:51.525Z,78.60
2018-08-24T02:24:19.856Z,78.70
2018-08-24T02:26:48.344Z,78.70
2018-08-24T02:29:16.696Z,78.70
2018-08-24T02:31:49.048Z,78.70
2018-08-24T02:34:17.575Z,78.90
2018-08-24T02:36:46.198Z,78.90
2018-08-24T02:39:17.555Z,79.20
2018-08-24T02:41:45.939Z,79.30
2018-08-24T02:44:14.349Z,79.40
2018-08-24T02:46:43.712Z,79.50
2018-08-24T02:49:12.331Z,80.50
2018-08-24T02:51:40.668Z,81.40
2018-08-24T02:54:09.061Z,82.60
2018-08-24T02:56:37.403Z,83.90
2018-08-24T02:59:05.785Z,85.30
2018-08-24T03:01:34.160Z,85.90
2018-08-24T03:04:02.485Z,86.70
2018-08-24T03:06:30.790Z,87.60
2018-08-24T03:08:59.120Z,88.20
2018-08-24T03:11:27.456Z,89.00
2018-08-24T03:13:55.819Z,89.40
2018-08-24T03:16:24.229Z,90.00
2018-08-24T03:18:52.488Z,90.30
2018-08-24T03:21:20.785Z,90.50
2018-08-24T03:23:49.116Z,90.60
2018-08-24T03:26:17.415Z,90.90
2018-08-24T03:28:45.780Z,91.00
2018-08-24T03:31:14.116Z,91.10
2018-08-24T03:33:42.430Z,91.20
2018-08-24T03:36:10.752Z,91.30
2018-08-24T03:38:39.108Z,91.40
2018-08-24T03:41:07.479Z,91.40
2018-08-24T03:43:35.824Z,91.50
2018-08-24T03:46:04.443Z,91.60
2018-08-24T03:48:33.044Z,91.60
2018-08-24T03:51:01.429Z,91.70
2018-08-24T03:53:29.790Z,91.80
2018-08-24T03:55:58.080Z,91.90
2018-08-24T03:58:26.420Z,91.90
2018-08-24T04:00:59.432Z,92.10
2018-08-24T04:03:28.844Z,92.10
2018-08-24T04:05:57.301Z,92.10
2018-08-24T04:08:25.663Z,92.10
2018-08-24T04:10:53.979Z,92.20
2018-08-24T04:13:22.336Z,92.30
2018-08-24T04:15:50.806Z,92.30
2018-08-24T04:18:19.120Z,92.30
2018-08-24T04:20:47.495Z,92.40
2018-08-24T04:23:15.786Z,92.50
2018-08-24T04:25:44.297Z,92.40
2018-08-24T04:28:12.498Z,92.50
2018-08-24T04:30:40.839Z,92.40
2018-08-24T04:33:09.184Z,92.50
2018-08-24T04:35:37.705Z,92.60
2018-08-24T04:38:06.492Z,92.60
2018-08-24T04:40:34.835Z,92.60
2018-08-24T04:43:03.148Z,92.60
2018-08-24T04:45:31.794Z,92.50
2018-08-24T04:48:00.093Z,92.60
2018-08-24T04:50:28.492Z,92.60
2018-08-24T04:52:56.820Z,92.50
2018-08-24T04:55:25.142Z,92.80
2018-08-24T04:57:53.455Z,92.40
2018-08-24T05:00:21.785Z,92.40
2018-08-24T05:02:50.095Z,92.30
2018-08-24T05:05:18.424Z,92.10
2018-08-24T05:07:46.804Z,92.00
2018-08-24T05:10:15.189Z,91.90
2018-08-24T05:12:43.600Z,91.80
2018-08-24T05:15:12.028Z,91.70
2018-08-24T05:17:40.400Z,91.70
2018-08-24T05:20:08.840Z,91.70
2018-08-24T05:22:37.277Z,91.70
2018-08-24T05:25:05.970Z,91.80
2018-08-24T05:27:34.260Z,91.90
2018-08-24T05:30:02.584Z,91.90
2018-08-24T05:32:30.940Z,91.90
2018-08-24T05:34:59.340Z,91.90
2018-08-24T05:37:27.731Z,91.80
2018-08-24T05:39:56.199Z,91.80
2018-08-24T05:42:24.546Z,91.90
2018-08-24T05:44:52.884Z,91.90
2018-08-24T05:47:21.279Z,91.80
2018-08-24T05:49:49.613Z,91.70
2018-08-24T05:52:17.959Z,91.60
2018-08-24T05:54:46.288Z,91.60
2018-08-24T05:57:14.793Z,91.50
2018-08-24T05:59:43.236Z,91.50
2018-08-24T06:02:11.614Z,91.40
2018-08-24T06:04:39.980Z,91.40
2018-08-24T06:07:08.284Z,91.40
2018-08-24T06:09:36.672Z,91.40
2018-08-24T06:12:05.024Z,91.30
2018-08-24T06:14:33.333Z,91.10
2018-08-24T06:18:04.556Z,91.10
2018-08-24T06:20:32.856Z,90.90
2018-08-24T06:23:01.197Z,90.60
2018-08-24T06:25:29.680Z,90.40
2018-08-24T06:27:58.020Z,90.40
2018-08-24T06:30:26.344Z,90.20
2018-08-24T06:32:54.769Z,90.10
2018-08-24T06:35:23.104Z,89.60
2018-08-24T06:37:51.522Z,89.60
2018-08-24T06:40:19.931Z,89.70
2018-08-24T06:42:49.260Z,89.70
2018-08-24T06:45:17.644Z,89.30
2018-08-24T06:47:45.996Z,88.90
2018-08-24T06:50:14.362Z,88.90
2018-08-24T06:52:42.681Z,88.80
2018-08-24T06:55:11.005Z,88.60
2018-08-24T06:57:39.536Z,88.30
2018-08-24T07:00:08.594Z,87.70
2018-08-24T07:02:37.000Z,87.50
2018-08-24T07:05:05.677Z,87.30
2018-08-24T07:07:33.992Z,87.30
2018-08-24T07:10:02.384Z,87.10
2018-08-24T07:12:30.720Z,86.70
2018-08-24T07:14:59.085Z,86.20
2018-08-24T07:18:04.088Z,86.00
2018-08-24T07:20:32.743Z,86.00
2018-08-24T07:23:01.336Z,86.30
2018-08-24T07:25:29.675Z,86.10
2018-08-24T07:27:58.016Z,86.10
2018-08-24T07:30:32.911Z,86.20
2018-08-24T07:33:01.226Z,85.80
2018-08-24T07:35:29.583Z,85.70
2018-08-24T07:37:57.976Z,85.60
2018-08-24T07:40:26.298Z,85.40
2018-08-24T07:42:54.612Z,85.40
2018-08-24T07:45:22.964Z,84.90
2018-08-24T07:47:51.292Z,84.60
2018-08-24T07:50:19.661Z,84.70
2018-08-24T07:52:47.960Z,84.40
2018-08-24T07:55:16.323Z,84.40
2018-08-24T07:57:44.614Z,84.70
2018-08-24T08:00:12.993Z,84.20
2018-08-24T08:02:45.736Z,84.20
2018-08-24T08:05:14.372Z,84.30
2018-08-24T08:07:42.647Z,84.40
2018-08-24T08:10:11.271Z,84.10
2018-08-24T08:12:39.644Z,83.80
2018-08-24T08:15:09.008Z,83.30
2018-08-24T08:17:38.253Z,82.70
2018-08-24T08:20:07.044Z,82.10
2018-08-24T08:22:35.603Z,81.30
2018-08-24T08:25:03.992Z,80.70
2018-08-24T08:27:32.824Z,80.60
2018-08-24T08:30:03.429Z,80.80
2018-08-24T08:32:32.181Z,80.80
2018-08-24T08:35:00.628Z,80.20
2018-08-24T08:37:28.996Z,80.20
2018-08-24T08:40:01.722Z,80.30
2018-08-24T08:42:30.297Z,80.00
2018-08-24T08:44:59.100Z,79.30
2018-08-24T08:47:27.506Z,79.20
2018-08-24T08:49:55.986Z,78.90
2018-08-24T08:52:24.357Z,78.90
2018-08-24T08:54:52.774Z,78.30
2018-08-24T08:57:21.224Z,78.00
2018-08-24T08:59:49.679Z,77.60
2018-08-24T09:02:18.031Z,77.40
2018-08-24T09:04:46.405Z,76.90
2018-08-24T09:07:14.729Z,76.20
2018-08-24T09:09:43.059Z,75.90
2018-08-24T09:12:11.345Z,75.20
2018-08-24T09:14:39.900Z,75.00
2018-08-24T09:17:13.524Z,75.30
2018-08-24T09:19:47.160Z,75.40
2018-08-24T09:22:20.922Z,75.00
2018-08-24T09:24:54.811Z,74.80
2018-08-24T09:27:29.812Z,74.00
2018-08-24T09:30:01.204Z,73.90
2018-08-24T09:32:29.642Z,73.40
2018-08-24T09:34:57.947Z,73.70
2018-08-24T09:37:36.779Z,73.70
2018-08-24T09:40:05.872Z,73.80
2018-08-24T09:42:34.341Z,73.80
2018-08-24T09:45:02.852Z,73.80
2018-08-24T09:47:36.320Z,73.80
2018-08-24T09:50:10.139Z,74.50
2018-08-24T09:52:38.644Z,75.60
2018-08-24T09:55:07.064Z,78.40
2018-08-24T09:57:35.419Z,80.50
2018-08-24T10:00:03.788Z,82.40
2018-08-24T10:02:37.437Z,84.70
2018-08-24T10:05:11.085Z,86.40
2018-08-24T10:07:45.064Z,87.90
2018-08-24T10:10:13.381Z,89.50
2018-08-24T10:12:41.900Z,90.00
2018-08-24T10:15:10.554Z,90.40
2018-08-24T10:17:38.861Z,90.60
2018-08-24T10:20:07.421Z,90.90
2018-08-24T10:22:35.887Z,90.70
2018-08-24T10:25:04.336Z,90.90
2018-08-24T10:27:32.994Z,90.80
2018-08-24T10:30:01.386Z,90.60
2018-08-24T10:32:29.720Z,90.60
2018-08-24T10:34:58.029Z,90.70
2018-08-24T10:37:26.376Z,90.90
2018-08-24T10:39:54.698Z,90.80
2018-08-24T10:42:23.019Z,90.60
2018-08-24T10:44:51.540Z,90.20
2018-08-24T10:47:19.985Z,89.50
2018-08-24T10:49:48.264Z,88.40
2018-08-24T10:52:16.630Z,88.00
2018-08-24T10:54:45.047Z,87.70
2018-08-24T10:57:13.339Z,88.30
2018-08-24T10:59:41.788Z,87.40
2018-08-24T11:02:10.152Z,86.60
2018-08-24T11:04:38.410Z,85.90
2018-08-24T11:07:06.773Z,85.10
2018-08-24T11:09:35.144Z,83.90
2018-08-24T11:12:03.468Z,84.30
2018-08-24T11:14:31.891Z,85.40
2018-08-24T11:17:00.362Z,84.80
2018-08-24T11:19:28.590Z,83.50
2018-08-24T11:21:57.013Z,80.50
2018-08-24T11:24:25.341Z,76.70
2018-08-24T11:26:53.794Z,74.90
2018-08-24T11:29:22.143Z,73.00
2018-08-24T11:31:50.391Z,71.50
2018-08-24T11:34:18.703Z,69.10
2018-08-24T11:36:47.010Z,68.40
2018-08-24T11:39:15.420Z,68.60
2018-08-24T11:41:43.955Z,67.50
2018-08-24T11:44:12.252Z,66.70
2018-08-24T11:46:40.604Z,65.60
2018-08-24T11:49:09.064Z,64.30
2018-08-24T11:51:37.467Z,63.50
2018-08-24T11:54:05.993Z,60.10
2018-08-24T11:56:34.304Z,58.80
2018-08-24T11:59:02.849Z,58.80
2018-08-24T12:01:31.204Z,57.70
2018-08-24T12:03:59.629Z,58.20
2018-08-24T12:06:28.756Z,58.80
2018-08-24T12:08:57.350Z,60.00
2018-08-24T12:11:25.750Z,59.90
2018-08-24T12:13:54.221Z,59.40
2018-08-24T12:16:22.508Z,58.20
2018-08-24T12:18:50.878Z,57.00
2018-08-24T12:21:19.389Z,54.10
2018-08-24T12:23:47.729Z,51.80
2018-08-24T12:26:16.057Z,52.20
2018-08-24T12:28:44.407Z,53.30
2018-08-24T12:31:12.757Z,53.60
2018-08-24T12:33:41.092Z,54.20
2018-08-24T12:36:14.700Z,55.10
2018-08-24T12:38:43.178Z,55.50
2018-08-24T12:41:11.920Z,55.80
2018-08-24T12:43:40.263Z,54.20
2018-08-24T12:46:08.940Z,53.60
2018-08-24T12:48:37.285Z,54.50
2018-08-24T12:51:05.709Z,53.10
2018-08-24T12:53:34.176Z,52.60
2018-08-24T12:56:02.573Z,51.80
2018-08-24T12:58:30.969Z,50.10
2018-08-24T13:00:59.361Z,49.20
2018-08-24T13:03:27.752Z,47.80
2018-08-24T13:05:56.130Z,45.30
2018-08-24T13:08:24.513Z,43.30
2018-08-24T13:10:52.905Z,42.70
2018-08-24T13:13:21.250Z,41.90
2018-08-24T13:15:49.598Z,41.00
2018-08-24T13:18:17.936Z,40.30
2018-08-24T13:20:46.608Z,39.90
2018-08-24T13:23:14.944Z,38.80
2018-08-24T13:25:43.301Z,39.00
2018-08-24T13:28:11.738Z,39.40
2018-08-24T13:30:40.157Z,40.80
2018-08-24T13:33:08.685Z,41.90
2018-08-24T13:35:38.182Z,43.50
2018-08-24T13:38:06.858Z,44.70
2018-08-24T13:40:35.315Z,45.30
2018-08-24T13:43:03.664Z,45.00
2018-08-24T13:45:32.075Z,45.30
2018-08-24T13:48:00.454Z,46.10
2018-08-24T13:50:28.881Z,46.10
2018-08-24T13:52:57.306Z,46.50
2018-08-24T13:55:25.614Z,47.20
2018-08-24T13:57:54.116Z,47.30
2018-08-24T14:00:22.485Z,47.80
2018-08-24T14:02:50.855Z,48.00
2018-08-24T14:05:19.254Z,48.30
2018-08-24T14:07:47.529Z,48.60
2018-08-24T14:10:15.914Z,48.50
2018-08-24T14:12:44.249Z,48.60
2018-08-24T14:15:12.621Z,48.50
2018-08-24T14:17:41.207Z,48.50
2018-08-24T14:20:09.600Z,47.90
2018-08-24T14:22:38.149Z,48.50
2018-08-24T14:25:06.610Z,48.60
2018-08-24T14:27:35.020Z,48.30
2018-08-24T14:30:03.397Z,48.30
2018-08-24T14:32:31.728Z,48.80
2018-08-24T14:35:00.265Z,49.10
2018-08-24T14:37:28.667Z,49.60
2018-08-24T14:39:57.026Z,49.70
2018-08-24T14:42:25.461Z,50.10
2018-08-24T14:44:53.785Z,50.30
2018-08-24T14:47:22.125Z,50.50
2018-08-24T14:49:50.801Z,49.90
2018-08-24T14:52:19.140Z,49.90
2018-08-24T14:54:47.424Z,49.60
2018-08-24T14:57:15.801Z,49.50
2018-08-24T14:59:44.363Z,49.70
2018-08-24T15:02:12.721Z,50.00
2018-08-24T15:04:41.101Z,50.50
2018-08-24T15:07:09.916Z,50.80
2018-08-24T15:09:38.280Z,51.00
2018-08-24T15:12:07.343Z,51.80
2018-08-24T15:14:35.656Z,51.60
2018-08-24T15:17:04.145Z,52.00
2018-08-24T15:19:32.514Z,51.70
2018-08-24T15:22:00.874Z,51.60
2018-08-24T15:24:29.302Z,51.80
2018-08-24T15:26:57.665Z,51.80
2018-08-24T15:29:26.093Z,51.90
2018-08-24T15:31:54.474Z,52.20
2018-08-24T15:34:22.860Z,52.40
2018-08-24T15:36:51.153Z,52.90
2018-08-24T15:39:19.475Z,53.00
2018-08-24T15:41:47.816Z,53.30
2018-08-24T15:44:16.095Z,53.30
2018-08-24T15:46:44.452Z,53.70
2018-08-24T15:49:12.765Z,53.60
2018-08-24T15:51:41.073Z,53.80
2018-08-24T15:54:09.564Z,53.50
2018-08-24T15:56:37.855Z,53.50
2018-08-24T15:59:06.254Z,53.60
2018-08-24T16:01:34.625Z,53.80
2018-08-24T16:04:02.936Z,54.70
2018-08-24T16:06:31.325Z,54.50
2018-08-24T16:08:59.682Z,54.80
2018-08-24T16:11:28.017Z,55.10
2018-08-24T16:13:56.381Z,55.00
2018-08-24T16:16:24.698Z,55.10
2018-08-24T16:18:53.067Z,55.10
2018-08-24T16:21:21.404Z,55.20
2018-08-24T16:23:49.744Z,55.20
2018-08-24T16:26:25.110Z,55.70
2018-08-24T16:28:53.879Z,55.70
2018-08-24T16:31:22.475Z,55.60
2018-08-24T16:33:54.011Z,55.70
2018-08-24T16:36:22.345Z,55.80
2018-08-24T16:38:50.701Z,55.90
2018-08-24T16:41:19.045Z,55.80
2018-08-24T16:43:47.380Z,56.10
2018-08-24T16:46:16.230Z,57.00
2018-08-24T16:48:44.660Z,58.10
2018-08-24T16:51:13.065Z,58.70
2018-08-24T16:53:41.408Z,59.30
2018-08-24T16:56:09.737Z,58.90
2018-08-24T16:58:38.060Z,59.80
2018-08-24T17:01:06.976Z,60.40
2018-08-24T17:03:35.362Z,61.20
2018-08-24T17:06:03.617Z,62.40
2018-08-24T17:08:31.945Z,62.70
2018-08-24T17:11:00.268Z,63.50
2018-08-24T17:13:28.578Z,62.70
2018-08-24T17:15:57.210Z,62.30
2018-08-24T17:18:25.535Z,62.20
2018-08-24T17:20:54.055Z,62.50
2018-08-24T17:23:22.407Z,63.30
2018-08-24T17:25:50.718Z,63.70
2018-08-24T17:28:19.077Z,63.90
2018-08-24T17:30:47.372Z,64.40
2018-08-24T17:33:15.713Z,65.00
2018-08-24T17:35:44.097Z,65.40
2018-08-24T17:38:12.447Z,65.90
2018-08-24T17:40:40.752Z,66.40
2018-08-24T17:43:09.085Z,66.20
2018-08-24T17:45:37.421Z,66.80
2018-08-24T17:48:05.912Z,66.90
2018-08-24T17:50:34.324Z,67.40
2018-08-24T17:53:02.661Z,67.90
2018-08-24T17:55:30.989Z,68.20
2018-08-24T17:57:59.837Z,68.40
2018-08-24T18:00:28.213Z,68.60
2018-08-24T18:02:56.496Z,68.70
2018-08-24T18:05:24.828Z,69.00
2018-08-24T18:07:53.150Z,69.20
2018-08-24T18:10:21.816Z,69.40
2018-08-24T18:12:50.145Z,69.50
2018-08-24T18:15:18.500Z,69.40
2018-08-24T18:17:46.801Z,69.20
2018-08-24T18:20:15.152Z,69.30
2018-08-24T18:22:43.481Z,69.10
2018-08-24T18:25:11.856Z,69.00
2018-08-24T18:27:40.284Z,68.90
2018-08-24T18:30:08.763Z,67.70
2018-08-24T18:32:37.120Z,67.30
2018-08-24T18:35:05.529Z,67.50
2018-08-24T18:37:33.891Z,67.60
2018-08-24T18:40:02.241Z,67.60
2018-08-24T18:42:31.033Z,67.10
2018-08-24T18:44:59.344Z,66.90
2018-08-24T18:47:27.688Z,66.60
2018-08-24T18:49:56.101Z,66.60
2018-08-24T18:52:24.456Z,66.70
2018-08-24T18:54:52.825Z,66.70
2018-08-24T18:57:21.274Z,66.60
2018-08-24T18:59:49.768Z,66.60
2018-08-24T19:02:18.115Z,66.60
2018-08-24T19:04:46.425Z,66.90
2018-08-24T19:07:14.968Z,67.00
2018-08-24T19:09:43.305Z,67.20
2018-08-24T19:12:16.861Z,66.90
2018-08-24T19:14:45.237Z,67.90
2018-08-24T19:17:17.912Z,67.30
2018-08-24T19:19:51.667Z,67.30
2018-08-24T19:22:20.051Z,67.40
2018-08-24T19:24:48.364Z,67.40
2018-08-24T19:27:17.702Z,67.60
2018-08-24T19:29:51.310Z,67.60
2018-08-24T19:32:19.788Z,67.80
2018-08-24T19:34:48.785Z,68.10
2018-08-24T19:37:17.325Z,68.20
2018-08-24T19:39:50.965Z,68.40
2018-08-24T19:42:24.682Z,68.30
2018-08-24T19:44:53.488Z,68.50
2018-08-24T19:47:27.136Z,68.70
2018-08-24T19:49:55.493Z,68.80
2018-08-24T19:52:24.020Z,68.90
2018-08-24T19:54:52.365Z,69.10
2018-08-24T19:57:25.908Z,69.30
2018-08-24T19:59:54.318Z,69.70
2018-08-24T20:02:22.652Z,69.20
2018-08-24T20:04:51.053Z,69.50
2018-08-24T20:07:24.627Z,69.80
2018-08-24T20:09:58.525Z,70.00
2018-08-24T20:12:28.073Z,70.50
2018-08-24T20:15:01.689Z,71.80
2018-08-24T20:17:30.693Z,71.80
2018-08-24T20:19:59.669Z,72.60
2018-08-24T20:22:28.303Z,73.00
2018-08-24T20:24:56.752Z,73.70
2018-08-24T20:27:25.041Z,74.10
2018-08-24T20:29:53.379Z,74.30
2018-08-24T20:32:21.761Z,74.40
2018-08-24T20:34:50.173Z,74.90
2018-08-24T20:37:18.555Z,75.10
2018-08-24T20:39:46.896Z,75.10
2018-08-24T20:42:15.257Z,75.50
2018-08-24T20:44:43.593Z,75.40
2018-08-24T20:47:11.978Z,75.10
2018-08-24T20:49:40.314Z,75.30
2018-08-24T20:52:08.708Z,75.30
2018-08-24T20:54:37.110Z,75.30
2018-08-24T20:57:05.913Z,75.20
2018-08-24T20:59:34.290Z,75.10
2018-08-24T21:02:02.625Z,75.10
2018-08-24T21:04:31.053Z,75.30
2018-08-24T21:06:59.404Z,75.00
2018-08-24T21:09:27.746Z,75.10
2018-08-24T21:11:56.312Z,75.20
2018-08-24T21:14:25.321Z,75.10
2018-08-24T21:16:53.782Z,75.00
2018-08-24T21:19:22.293Z,75.60
2018-08-24T21:21:50.668Z,75.70
2018-08-24T21:24:18.982Z,75.60
2018-08-24T21:26:47.577Z,76.00
2018-08-24T21:29:16.048Z,75.70
2018-08-24T21:31:44.540Z,75.80
2018-08-24T21:34:12.932Z,75.90
2018-08-24T21:36:41.456Z,76.00
2018-08-24T21:39:11.297Z,76.30
2018-08-24T21:41:40.353Z,76.50
2018-08-24T21:44:09.136Z,76.80
2018-08-24T21:46:37.489Z,76.80
2018-08-24T21:49:06.550Z,76.90
2018-08-24T21:51:35.369Z,77.00
2018-08-24T21:54:03.930Z,77.30
2018-08-24T21:56:32.228Z,78.20
2018-08-24T21:59:00.608Z,79.10
2018-08-24T22:01:28.992Z,79.40
2018-08-24T22:03:57.415Z,80.10
2018-08-24T22:06:25.788Z,80.80
2018-08-24T22:08:54.176Z,81.50
2018-08-24T22:11:22.638Z,82.20
2018-08-24T22:13:50.992Z,82.70
2018-08-24T22:16:19.300Z,82.90
2018-08-24T22:18:47.693Z,83.60
2018-08-24T22:21:16.185Z,83.80
2018-08-24T22:23:44.572Z,84.20
2018-08-24T22:26:13.022Z,84.50
2018-08-24T22:28:41.403Z,84.70
2018-08-24T22:31:09.757Z,85.00
2018-08-24T22:33:38.143Z,85.30
2018-08-24T22:36:06.502Z,85.60
2018-08-24T22:38:34.838Z,85.90
2018-08-24T22:41:03.153Z,86.30
2018-08-24T22:43:35.885Z,86.70
2018-08-24T22:46:04.720Z,87.00
2018-08-24T22:48:33.633Z,87.30
2018-08-24T22:51:02.147Z,87.50
2018-08-24T22:53:30.556Z,87.70
2018-08-24T22:55:58.897Z,88.10
2018-08-24T22:58:27.361Z,88.40
2018-08-24T23:00:55.670Z,88.60
2018-08-24T23:03:23.976Z,88.60
2018-08-24T23:05:52.320Z,89.00
2018-08-24T23:08:20.664Z,89.20
2018-08-24T23:10:49.034Z,89.40
2018-08-24T23:13:17.515Z,89.50
2018-08-24T23:15:45.872Z,89.70
2018-08-24T23:18:14.222Z,90.00
2018-08-24T23:20:42.644Z,90.10
2018-08-24T23:23:11.017Z,90.10
2018-08-24T23:25:39.394Z,90.10
2018-08-24T23:28:07.740Z,90.20
2018-08-24T23:30:36.108Z,90.20
2018-08-24T23:33:04.525Z,90.20
2018-08-24T23:35:32.967Z,90.10
2018-08-24T23:38:01.350Z,90.10
2018-08-24T23:40:29.716Z,90.00
2018-08-24T23:42:58.217Z,89.80
2018-08-24T23:45:26.590Z,89.60
2018-08-24T23:47:54.953Z,89.50
2018-08-24T23:50:23.381Z,89.50
2018-08-24T23:52:51.793Z,89.40
2018-08-24T23:55:20.153Z,89.40
2018-08-24T23:57:48.504Z,89.50
